Nakhon Ratchasima Airport
VTUQ : now visible

Airfield :











YOU CAN JOIN US ON...

 
LOGIN :

Register | Disclaimer

   EN    FR    IT 

 









Legend :    VFR   Marginal VFR   IFR   Intensive IFR   Very Intensive IFR
Visi :
Ceiling :
>= 8 km
>= 3000ft
5 to 8 km
1000 to 3000 ft
1500m to 5 km
500 to 1000 ft
800 to 1500m
200 to 500 ft
< 800m
< 200 ft
Symbols :   Thunderstorms  Fog  Heavy snow  Heavy precipitations  Wind > 20 kt






- Airport Elevation : 765 ft
- IATA code : NAK


VTUQ - Nakhon Ratchasima

CURRENT METAR :
  • 240900Z 20007KT 9999 SCT030 39/17 Q1003 NOSIG

EXPIRED METARs :
  • 240800Z 22007KT 180V280 9999 SCT030 40/17 Q1004 NOSIG
  • 240700Z 20009KT 160V270 9999 FEW030 39/16 Q1005 NOSIG
  • 240600Z 20009KT 170V240 9999 FEW030 39/16 Q1006 NOSIG
  • 240500Z 22008KT 150V270 CAVOK 38/17 Q1008 NOSIG
  • 240400Z VRB06KT CAVOK 36/18 Q1009 NOSIG

TAF TAF VTUQ
Valid from the 24 at 06:00 until the 25 at 06:00 UTC


240500Z 2406/2506 21005KT 8000 FEW035
VTBB FIR / Asia



MET'MAP, your aeronautical weather chart ! - Copyright ORBIFLY December 2007 - Disclaimer

ORBIFLY MET'MAP TEAM :

Programming & Development : Alexandra Zaïnal
Original concept : Baudouin d'Aumeries
Technical & hardware support : Manuel Goepfert
Assistance : Marc-Olivier Méhu




SOURCES & CREDITS :

   NOAA       Earth
Advisory